createdAt,value
2018-12-07T00:01:18.554Z,2.40
2018-12-07T00:03:46.008Z,2.30
2018-12-07T00:06:13.529Z,2.60
2018-12-07T00:08:41.007Z,2.10
2018-12-07T00:11:08.425Z,3.00
2018-12-07T00:13:35.871Z,2.37
2018-12-07T00:16:03.374Z,2.00
2018-12-07T00:18:30.809Z,2.40
2018-12-07T00:20:58.268Z,2.30
2018-12-07T00:23:25.709Z,2.23
2018-12-07T00:25:53.144Z,2.20
2018-12-07T00:28:20.576Z,2.10
2018-12-07T00:30:48.016Z,2.13
2018-12-07T00:33:15.450Z,1.93
2018-12-07T00:35:42.918Z,2.50
2018-12-07T00:38:10.379Z,2.40
2018-12-07T00:40:37.896Z,1.93
2018-12-07T00:43:05.353Z,1.80
2018-12-07T00:45:32.799Z,2.30
2018-12-07T00:48:00.328Z,2.10
2018-12-07T00:50:27.854Z,2.10
2018-12-07T00:52:55.283Z,1.87
2018-12-07T00:55:43.895Z,1.90
2018-12-07T00:58:11.328Z,2.00
2018-12-07T01:00:38.763Z,1.80
2018-12-07T01:03:06.221Z,1.67
2018-12-07T01:05:33.652Z,1.80
2018-12-07T01:08:01.127Z,1.93
2018-12-07T01:10:28.613Z,1.80
2018-12-07T01:12:56.068Z,1.87
2018-12-07T01:15:23.523Z,2.20
2018-12-07T01:17:50.953Z,1.83
2018-12-07T01:20:18.487Z,1.70
2018-12-07T01:22:45.947Z,1.90
2018-12-07T01:25:13.416Z,2.00
2018-12-07T01:27:40.884Z,1.80
2018-12-07T01:30:08.370Z,2.10
2018-12-07T01:32:35.812Z,1.97
2018-12-07T01:35:03.899Z,1.80
2018-12-07T01:37:31.328Z,1.70
2018-12-07T01:39:58.763Z,1.80
2018-12-07T01:42:26.185Z,1.80
2018-12-07T01:44:53.612Z,1.90
2018-12-07T01:47:21.084Z,1.90
2018-12-07T01:49:48.524Z,1.70
2018-12-07T01:52:15.956Z,1.80
2018-12-07T01:54:43.390Z,1.73
2018-12-07T01:57:10.832Z,1.60
2018-12-07T01:59:38.279Z,2.27
2018-12-07T02:02:05.723Z,1.40
2018-12-07T02:04:33.156Z,1.60
2018-12-07T02:07:00.591Z,1.70
2018-12-07T02:09:28.024Z,1.80
2018-12-07T02:11:55.451Z,1.70
2018-12-07T02:14:22.888Z,1.57
2018-12-07T02:16:50.323Z,1.60
2018-12-07T02:19:17.779Z,1.90
2018-12-07T02:21:45.216Z,1.40
2018-12-07T02:24:12.651Z,1.63
2018-12-07T02:26:40.120Z,1.60
2018-12-07T02:29:07.552Z,1.60
2018-12-07T02:31:34.988Z,2.00
2018-12-07T02:34:02.418Z,1.60
2018-12-07T02:36:29.857Z,1.60
2018-12-07T02:38:57.380Z,1.73
2018-12-07T02:41:24.823Z,1.90
2018-12-07T02:43:52.253Z,1.90
2018-12-07T02:46:19.685Z,1.80
2018-12-07T02:48:47.127Z,2.10
2018-12-07T02:51:14.582Z,1.83
2018-12-07T02:53:42.113Z,2.33
2018-12-07T02:56:09.532Z,1.53
2018-12-07T02:58:36.975Z,1.60
2018-12-07T03:01:04.423Z,1.43
2018-12-07T03:03:31.859Z,2.00
2018-12-07T03:05:59.304Z,1.87
2018-12-07T03:08:28.860Z,1.70
2018-12-07T03:10:56.316Z,1.60
2018-12-07T03:13:23.783Z,1.57
2018-12-07T03:15:51.219Z,1.60
2018-12-07T03:18:24.576Z,1.50
2018-12-07T03:20:52.004Z,1.40
2018-12-07T03:23:19.446Z,1.50
2018-12-07T03:25:46.879Z,1.30
2018-12-07T03:28:14.338Z,2.27
2018-12-07T03:30:41.765Z,1.60
2018-12-07T03:33:09.288Z,1.70
2018-12-07T03:35:36.808Z,1.83
2018-12-07T03:38:04.404Z,1.40
2018-12-07T03:40:31.856Z,1.60
2018-12-07T03:42:59.315Z,1.50
2018-12-07T03:45:26.740Z,1.53
2018-12-07T03:47:54.181Z,1.33
2018-12-07T03:50:21.615Z,1.33
2018-12-07T03:52:49.187Z,1.60
2018-12-07T03:55:16.623Z,1.40
2018-12-07T03:57:44.060Z,1.50
2018-12-07T04:00:11.543Z,1.50
2018-12-07T04:02:39.075Z,1.23
2018-12-07T04:05:06.535Z,1.30
2018-12-07T04:07:34.011Z,1.30
2018-12-07T04:10:01.437Z,1.30
2018-12-07T04:12:28.867Z,1.20
2018-12-07T04:14:56.311Z,1.00
2018-12-07T04:17:23.756Z,1.23
2018-12-07T04:19:51.181Z,1.30
2018-12-07T04:22:18.619Z,1.20
2018-12-07T04:24:46.058Z,1.17
2018-12-07T04:27:13.590Z,1.30
2018-12-07T04:29:41.007Z,1.37
2018-12-07T04:32:08.454Z,1.37
2018-12-07T04:34:35.994Z,1.40
2018-12-07T04:37:03.462Z,1.20
2018-12-07T04:39:30.888Z,1.30
2018-12-07T04:41:58.335Z,1.10
2018-12-07T04:44:25.848Z,1.07
2018-12-07T04:46:53.593Z,1.00
2018-12-07T04:49:21.024Z,1.00
2018-12-07T04:51:48.468Z,1.10
2018-12-07T04:54:15.899Z,1.00
2018-12-07T04:56:43.376Z,1.50
2018-12-07T04:59:10.839Z,1.10
2018-12-07T05:01:38.277Z,1.00
2018-12-07T05:04:05.739Z,1.13
2018-12-07T05:06:33.174Z,1.10
2018-12-07T05:09:00.609Z,1.13
2018-12-07T05:11:28.128Z,1.10
2018-12-07T05:13:55.563Z,1.13
2018-12-07T05:16:22.996Z,0.97
2018-12-07T05:18:50.443Z,1.00
2018-12-07T05:21:17.881Z,0.93
2018-12-07T05:23:45.311Z,1.03
2018-12-07T05:26:12.750Z,1.27
2018-12-07T05:28:40.192Z,1.33
2018-12-07T05:31:07.616Z,0.87
2018-12-07T05:33:35.060Z,0.90
2018-12-07T05:36:02.577Z,1.20
2018-12-07T05:38:30.012Z,1.20
2018-12-07T05:40:57.480Z,1.23
2018-12-07T05:43:24.916Z,1.03
2018-12-07T05:45:52.348Z,1.00
2018-12-07T05:48:23.584Z,0.80
2018-12-07T05:50:49.269Z,0.80
2018-12-07T05:53:16.711Z,0.73
2018-12-07T05:55:44.151Z,0.90
2018-12-07T05:58:11.719Z,0.80
2018-12-07T06:00:39.172Z,0.80
2018-12-07T06:03:06.612Z,0.77
2018-12-07T06:05:34.055Z,1.03
2018-12-07T06:08:01.502Z,0.90
2018-12-07T06:10:28.927Z,0.90
2018-12-07T06:12:56.401Z,0.80
2018-12-07T06:15:23.837Z,0.77
2018-12-07T06:17:51.312Z,0.83
2018-12-07T06:20:18.749Z,0.83
2018-12-07T06:22:46.187Z,0.70
2018-12-07T06:25:13.625Z,0.70
2018-12-07T06:27:41.148Z,1.07
2018-12-07T06:30:08.606Z,0.60
2018-12-07T06:32:36.414Z,0.80
2018-12-07T06:35:04.228Z,1.00
2018-12-07T06:37:31.671Z,0.93
2018-12-07T06:39:59.108Z,0.93
2018-12-07T06:42:26.532Z,0.93
2018-12-07T06:44:54.000Z,1.40
2018-12-07T06:47:21.440Z,1.27
2018-12-07T06:49:48.908Z,1.03
2018-12-07T06:52:16.366Z,1.10
2018-12-07T06:54:43.840Z,1.17
2018-12-07T06:57:11.299Z,1.00
2018-12-07T06:59:38.736Z,1.20
2018-12-07T07:02:06.258Z,1.00
2018-12-07T07:04:33.688Z,1.10
2018-12-07T07:07:01.120Z,1.00
2018-12-07T07:09:28.564Z,0.80
2018-12-07T07:11:55.991Z,0.90
2018-12-07T07:14:23.427Z,0.80
2018-12-07T07:16:50.890Z,1.93
2018-12-07T07:19:24.388Z,1.10
2018-12-07T07:21:51.805Z,0.87
2018-12-07T07:24:19.254Z,0.80
2018-12-07T07:26:46.802Z,0.70
2018-12-07T07:29:14.305Z,1.07
2018-12-07T07:31:43.637Z,0.70
2018-12-07T07:34:11.167Z,0.93
2018-12-07T07:36:38.644Z,1.03
2018-12-07T07:39:07.143Z,1.30
2018-12-07T07:41:34.683Z,1.40
2018-12-07T07:44:02.171Z,1.70
2018-12-07T07:46:29.659Z,1.93
2018-12-07T07:48:57.091Z,1.50
2018-12-07T07:51:24.569Z,1.57
2018-12-07T07:53:52.007Z,1.20
2018-12-07T07:56:19.504Z,1.00
2018-12-07T07:58:46.963Z,0.73
2018-12-07T08:01:14.472Z,1.20
2018-12-07T08:03:41.921Z,0.87
2018-12-07T08:06:09.358Z,1.37
2018-12-07T08:08:36.787Z,0.90
2018-12-07T08:11:04.301Z,0.80
2018-12-07T08:13:31.775Z,0.77
2018-12-07T08:15:59.238Z,0.90
2018-12-07T08:18:26.679Z,0.90
2018-12-07T08:20:54.107Z,0.70
2018-12-07T08:23:21.535Z,0.60
2018-12-07T08:25:48.983Z,0.70
2018-12-07T08:28:16.420Z,0.67
2018-12-07T08:30:43.880Z,0.70
2018-12-07T08:33:11.357Z,0.50
2018-12-07T08:35:38.854Z,0.60
2018-12-07T08:38:06.281Z,0.50
2018-12-07T08:40:33.773Z,0.77
2018-12-07T08:43:01.363Z,0.60
2018-12-07T08:45:28.835Z,0.50
2018-12-07T08:47:56.296Z,0.60
2018-12-07T08:50:23.767Z,0.70
2018-12-07T08:52:51.199Z,0.60
2018-12-07T08:55:18.667Z,0.63
2018-12-07T08:57:46.151Z,0.87
2018-12-07T09:00:13.648Z,0.70
2018-12-07T09:02:41.130Z,0.60
2018-12-07T09:05:08.642Z,0.60
2018-12-07T09:07:36.094Z,0.60
2018-12-07T09:10:03.910Z,0.63
2018-12-07T09:12:31.383Z,0.60
2018-12-07T09:14:58.843Z,0.60
2018-12-07T09:17:26.277Z,0.60
2018-12-07T09:19:53.719Z,0.70
2018-12-07T09:22:21.183Z,0.57
2018-12-07T09:24:48.654Z,0.70
2018-12-07T09:27:16.114Z,0.70
2018-12-07T09:29:43.598Z,0.70
2018-12-07T09:32:11.044Z,1.20
2018-12-07T09:34:38.558Z,0.80
2018-12-07T09:37:05.999Z,0.70
2018-12-07T09:39:33.443Z,0.80
2018-12-07T09:42:00.873Z,0.80
2018-12-07T09:44:28.318Z,1.10
2018-12-07T09:46:56.213Z,0.90
2018-12-07T09:49:23.816Z,0.60
2018-12-07T09:51:51.247Z,0.80
2018-12-07T09:54:18.687Z,0.60
2018-12-07T09:56:46.123Z,0.80
2018-12-07T09:59:13.570Z,0.90
2018-12-07T10:01:41.010Z,0.77
2018-12-07T10:04:08.448Z,0.90
2018-12-07T10:06:35.875Z,0.73
2018-12-07T10:09:06.184Z,0.70
2018-12-07T10:11:33.652Z,0.70
2018-12-07T10:14:01.158Z,0.67
2018-12-07T10:16:28.586Z,0.50
2018-12-07T10:18:56.089Z,0.50
2018-12-07T10:21:23.608Z,0.70
2018-12-07T10:23:51.043Z,0.70
2018-12-07T10:26:18.482Z,0.70
2018-12-07T10:28:45.911Z,0.90
2018-12-07T10:31:13.379Z,0.63
2018-12-07T10:33:40.824Z,0.50
2018-12-07T10:36:09.307Z,0.57
2018-12-07T10:38:36.743Z,0.60
2018-12-07T10:41:04.216Z,0.43
2018-12-07T10:43:31.657Z,0.40
2018-12-07T10:45:59.145Z,0.70
2018-12-07T10:48:26.559Z,0.70
2018-12-07T10:50:54.008Z,0.50
2018-12-07T10:53:21.475Z,0.40
2018-12-07T10:55:48.907Z,0.53
2018-12-07T10:58:16.381Z,0.60
2018-12-07T11:00:49.458Z,0.30
2018-12-07T11:03:22.439Z,0.40
2018-12-07T11:05:55.563Z,0.60
2018-12-07T11:08:28.719Z,0.30
2018-12-07T11:10:56.488Z,0.50
2018-12-07T11:13:29.527Z,0.40
2018-12-07T11:19:09.636Z,0.37
2018-12-07T11:21:42.850Z,0.30
2018-12-07T11:24:15.988Z,0.43
2018-12-07T11:26:49.110Z,0.40
2018-12-07T11:32:18.096Z,0.40
2018-12-07T11:34:47.472Z,0.30
2018-12-07T11:37:14.911Z,0.40
2018-12-07T11:39:42.353Z,0.40
2018-12-07T11:42:09.787Z,0.57
2018-12-07T11:44:37.316Z,0.43
2018-12-07T11:47:04.752Z,0.50
2018-12-07T11:49:32.524Z,0.60
2018-12-07T11:52:00.000Z,0.40
2018-12-07T11:54:27.461Z,0.60
2018-12-07T11:56:54.898Z,0.50
2018-12-07T11:59:22.372Z,0.60
2018-12-07T12:01:49.879Z,0.60
2018-12-07T12:04:17.353Z,0.50
2018-12-07T12:06:44.829Z,0.60
2018-12-07T12:09:12.257Z,0.63
2018-12-07T12:11:39.701Z,0.80
2018-12-07T12:14:07.191Z,1.00
2018-12-07T12:16:34.633Z,0.70
2018-12-07T12:19:02.096Z,0.90
2018-12-07T12:21:29.568Z,0.67
2018-12-07T12:23:57.011Z,0.83
2018-12-07T12:26:24.458Z,0.67
2018-12-07T12:28:51.888Z,1.03
2018-12-07T12:31:19.360Z,0.90
2018-12-07T12:33:46.830Z,1.00
2018-12-07T12:36:17.180Z,0.80
2018-12-07T12:38:43.692Z,0.67
2018-12-07T12:41:11.159Z,0.60
2018-12-07T12:43:38.619Z,0.70
2018-12-07T12:46:06.065Z,0.60
2018-12-07T12:48:33.528Z,0.60
2018-12-07T12:51:00.980Z,0.50
2018-12-07T12:53:28.468Z,0.90
2018-12-07T12:55:56.032Z,0.70
2018-12-07T12:58:23.503Z,0.80
2018-12-07T13:00:51.016Z,0.70
2018-12-07T13:03:18.436Z,0.70
2018-12-07T13:05:45.878Z,0.80
2018-12-07T13:08:13.312Z,0.70
2018-12-07T13:10:40.756Z,0.70
2018-12-07T13:13:08.204Z,0.80
2018-12-07T13:15:35.723Z,0.80
2018-12-07T13:18:03.201Z,0.90
2018-12-07T13:20:30.628Z,0.90
2018-12-07T13:22:58.070Z,0.90
2018-12-07T13:25:25.500Z,0.80
2018-12-07T13:27:52.947Z,0.80
2018-12-07T13:30:20.380Z,0.73
2018-12-07T13:32:47.812Z,0.70
2018-12-07T13:35:15.239Z,1.00
2018-12-07T13:37:42.684Z,0.63
2018-12-07T13:40:10.283Z,0.80
2018-12-07T13:42:37.937Z,0.90
2018-12-07T13:45:07.130Z,0.87
2018-12-07T13:47:34.737Z,0.70
2018-12-07T13:50:09.267Z,0.90
2018-12-07T13:52:36.814Z,0.70
2018-12-07T13:55:04.735Z,0.60
2018-12-07T13:57:32.435Z,0.83
2018-12-07T14:00:00.073Z,0.90
2018-12-07T14:02:27.607Z,0.80
2018-12-07T14:04:55.603Z,0.90
2018-12-07T14:07:23.117Z,1.00
2018-12-07T14:09:50.686Z,0.70
2018-12-07T14:12:18.183Z,0.87
2018-12-07T14:14:45.870Z,0.73
2018-12-07T14:17:13.648Z,0.90
2018-12-07T14:19:41.233Z,1.00
2018-12-07T14:22:08.679Z,0.83
2018-12-07T14:24:36.256Z,0.80
2018-12-07T14:27:03.813Z,1.03
2018-12-07T14:29:31.357Z,1.10
2018-12-07T14:31:58.942Z,1.00
2018-12-07T14:34:26.798Z,0.97
2018-12-07T14:36:54.464Z,1.00
2018-12-07T14:39:22.208Z,1.10
2018-12-07T14:41:49.996Z,1.00
2018-12-07T14:44:17.686Z,0.70
2018-12-07T14:46:45.680Z,1.20
2018-12-07T14:49:13.287Z,0.80
2018-12-07T14:51:41.025Z,1.10
2018-12-07T14:54:08.570Z,0.80
2018-12-07T14:56:36.177Z,1.10
2018-12-07T14:59:03.946Z,0.90
2018-12-07T15:01:31.574Z,0.70
2018-12-07T15:03:59.039Z,0.90
2018-12-07T15:06:26.658Z,1.10
2018-12-07T15:08:54.216Z,1.00
2018-12-07T15:11:21.760Z,1.30
2018-12-07T15:13:49.340Z,1.00
2018-12-07T15:16:18.109Z,0.80
2018-12-07T15:18:50.252Z,0.87
2018-12-07T15:21:17.789Z,0.90
2018-12-07T15:23:45.430Z,0.93
2018-12-07T15:26:12.967Z,1.10
2018-12-07T15:28:40.653Z,0.90
2018-12-07T15:31:08.469Z,1.07
2018-12-07T15:33:36.640Z,1.10
2018-12-07T15:38:44.573Z,1.10
2018-12-07T15:41:12.204Z,1.20
2018-12-07T15:43:39.822Z,1.20
2018-12-07T15:46:07.455Z,0.90
2018-12-07T15:48:35.550Z,1.10
2018-12-07T15:51:03.260Z,1.12
2018-12-07T15:53:30.942Z,1.10
2018-12-07T15:55:58.452Z,1.10
2018-12-07T15:58:25.979Z,1.30
2018-12-07T16:00:53.603Z,1.13
2018-12-07T16:03:21.217Z,1.37
2018-12-07T16:05:50.690Z,1.00
2018-12-07T16:08:24.919Z,1.20
2018-12-07T16:10:49.317Z,1.20
2018-12-07T16:13:17.366Z,0.80
2018-12-07T16:15:45.318Z,1.00
2018-12-07T16:18:13.049Z,1.20
2018-12-07T16:20:40.801Z,1.53
2018-12-07T16:23:08.479Z,1.10
2018-12-07T16:25:36.413Z,1.30
2018-12-07T16:28:04.063Z,1.27
2018-12-07T16:30:31.578Z,1.67
2018-12-07T16:32:59.186Z,1.20
2018-12-07T16:35:26.747Z,1.50
2018-12-07T16:37:54.195Z,1.20
2018-12-07T16:40:21.933Z,1.43
2018-12-07T16:42:49.426Z,1.20
2018-12-07T16:45:16.974Z,1.20
2018-12-07T16:47:44.544Z,1.13
2018-12-07T16:50:12.071Z,1.30
2018-12-07T16:52:39.605Z,1.30
2018-12-07T16:55:07.177Z,1.13
2018-12-07T16:57:34.736Z,1.00
2018-12-07T17:00:02.438Z,0.97
2018-12-07T17:02:29.940Z,1.20
2018-12-07T17:04:57.794Z,1.10
2018-12-07T17:07:25.596Z,1.40
2018-12-07T17:09:53.329Z,1.30
2018-12-07T17:12:20.987Z,1.10
2018-12-07T17:14:48.590Z,1.30
2018-12-07T17:17:16.143Z,1.30
2018-12-07T17:19:43.704Z,1.20
2018-12-07T17:22:11.292Z,1.47
2018-12-07T17:24:38.959Z,1.30
2018-12-07T17:27:06.621Z,1.30
2018-12-07T17:29:34.257Z,1.30
2018-12-07T17:32:01.973Z,1.30
2018-12-07T17:34:29.676Z,1.10
2018-12-07T17:36:57.152Z,1.07
2018-12-07T17:39:24.806Z,1.23
2018-12-07T17:41:52.264Z,1.10
2018-12-07T17:44:19.831Z,1.50
2018-12-07T17:46:47.368Z,1.37
2018-12-07T17:49:14.987Z,1.40
2018-12-07T17:51:42.548Z,1.33
2018-12-07T17:54:10.375Z,1.30
2018-12-07T17:56:37.870Z,1.03
2018-12-07T17:59:06.219Z,1.00
2018-12-07T18:01:33.813Z,1.20
2018-12-07T18:04:01.248Z,1.17
2018-12-07T18:06:30.625Z,1.20
2018-12-07T18:08:58.143Z,1.20
2018-12-07T18:11:25.976Z,1.30
2018-12-07T18:13:53.873Z,1.10
2018-12-07T18:16:21.454Z,1.20
2018-12-07T18:18:49.180Z,1.27
2018-12-07T18:21:16.822Z,1.20
2018-12-07T18:23:44.397Z,1.20
2018-12-07T18:26:11.950Z,1.17
2018-12-07T18:28:39.503Z,1.30
2018-12-07T18:31:07.187Z,1.20
2018-12-07T18:33:34.691Z,1.10
2018-12-07T18:36:02.169Z,1.20
2018-12-07T18:38:29.744Z,1.20
2018-12-07T18:40:57.470Z,1.10
2018-12-07T18:43:25.126Z,1.17
2018-12-07T18:45:52.941Z,1.50
2018-12-07T18:48:20.715Z,1.20
2018-12-07T18:50:48.534Z,1.30
2018-12-07T18:53:16.100Z,1.30
2018-12-07T18:55:43.891Z,1.30
2018-12-07T18:58:11.496Z,1.40
2018-12-07T19:00:39.289Z,1.27
2018-12-07T19:03:06.817Z,1.03
2018-12-07T19:05:34.303Z,1.00
2018-12-07T19:08:01.920Z,1.10
2018-12-07T19:10:29.521Z,1.13
2018-12-07T19:12:57.163Z,1.13
2018-12-07T19:15:24.819Z,1.47
2018-12-07T19:17:52.323Z,1.50
2018-12-07T19:20:19.892Z,1.40
2018-12-07T19:22:47.528Z,1.23
2018-12-07T19:25:15.201Z,1.20
2018-12-07T19:27:42.694Z,1.60
2018-12-07T19:30:14.534Z,1.30
2018-12-07T19:32:39.863Z,1.50
2018-12-07T19:35:07.521Z,1.20
2018-12-07T19:37:35.139Z,1.47
2018-12-07T19:40:03.206Z,1.30
2018-12-07T19:42:30.768Z,1.50
2018-12-07T19:44:58.327Z,1.30
2018-12-07T19:47:25.924Z,1.37
2018-12-07T19:49:53.514Z,1.70
2018-12-07T19:52:21.228Z,1.40
2018-12-07T19:54:48.818Z,1.50
2018-12-07T19:57:16.321Z,1.50
2018-12-07T19:59:43.887Z,1.60
2018-12-07T20:02:11.637Z,1.80
2018-12-07T20:04:39.508Z,1.73
2018-12-07T20:07:07.076Z,1.73
2018-12-07T20:09:34.667Z,1.50
2018-12-07T20:12:02.245Z,1.30
2018-12-07T20:14:30.545Z,1.67
2018-12-07T20:16:58.137Z,1.70
2018-12-07T20:19:25.641Z,1.60
2018-12-07T20:21:53.162Z,1.20
2018-12-07T20:24:20.623Z,1.17
2018-12-07T20:26:48.354Z,0.53
2018-12-07T20:29:16.179Z,0.70
2018-12-07T20:31:43.836Z,0.60
2018-12-07T20:34:11.330Z,0.53
2018-12-07T20:36:38.857Z,0.60
2018-12-07T20:39:07.103Z,0.50
2018-12-07T20:41:34.874Z,0.63
2018-12-07T20:44:02.492Z,0.40
2018-12-07T20:46:29.940Z,0.63
2018-12-07T20:48:57.534Z,0.60
2018-12-07T20:51:26.274Z,0.50
2018-12-07T20:53:54.135Z,0.60
2018-12-07T20:56:22.014Z,0.80
2018-12-07T20:58:49.702Z,1.33
2018-12-07T21:01:17.258Z,1.00
2018-12-07T21:04:03.341Z,1.67
2018-12-07T21:10:03.769Z,1.30
2018-12-07T21:12:41.300Z,1.10
2018-12-07T21:15:09.132Z,1.40
2018-12-07T21:17:36.713Z,1.00
2018-12-07T21:20:06.150Z,1.20
2018-12-07T21:22:33.987Z,1.30
2018-12-07T21:25:01.664Z,1.20
2018-12-07T21:27:29.310Z,1.47
2018-12-07T21:29:59.786Z,1.37
2018-12-07T21:32:27.302Z,1.50
2018-12-07T21:34:58.316Z,1.50
2018-12-07T21:37:26.031Z,1.70
2018-12-07T21:39:57.471Z,1.20
2018-12-07T21:42:25.063Z,1.47
2018-12-07T21:44:52.598Z,1.80
2018-12-07T21:47:21.145Z,1.70
2018-12-07T21:49:48.660Z,1.20
2018-12-07T21:52:16.856Z,1.53
2018-12-07T21:54:44.368Z,1.73
2018-12-07T21:57:12.087Z,1.33
2018-12-07T21:59:39.607Z,1.83
2018-12-07T22:02:07.296Z,1.53
2018-12-07T22:04:35.003Z,1.50
2018-12-07T22:07:03.017Z,2.73
2018-12-07T22:09:30.895Z,1.73
2018-12-07T22:11:58.491Z,1.40
2018-12-07T22:14:26.301Z,2.10
2018-12-07T22:16:53.957Z,1.53
2018-12-07T22:19:21.538Z,2.07
2018-12-07T22:21:49.230Z,1.50
2018-12-07T22:24:16.806Z,1.17
2018-12-07T22:26:44.311Z,1.80
2018-12-07T22:29:11.827Z,1.63
2018-12-07T22:31:39.420Z,1.90
2018-12-07T22:34:07.076Z,1.60
2018-12-07T22:36:35.024Z,2.23
2018-12-07T22:39:02.616Z,1.50
2018-12-07T22:41:30.083Z,1.80
2018-12-07T22:43:57.596Z,1.53
2018-12-07T22:46:25.149Z,1.87
2018-12-07T22:48:52.876Z,1.83
2018-12-07T22:51:22.414Z,1.83
2018-12-07T22:53:49.883Z,1.40
2018-12-07T22:56:17.302Z,1.70
2018-12-07T22:58:44.750Z,1.83
2018-12-07T23:01:12.248Z,1.27
2018-12-07T23:03:39.715Z,1.43
2018-12-07T23:06:07.151Z,1.93
2018-12-07T23:08:34.584Z,2.67
2018-12-07T23:11:02.011Z,2.33
2018-12-07T23:13:29.485Z,1.87
2018-12-07T23:15:56.921Z,1.97
2018-12-07T23:18:24.368Z,1.33
2018-12-07T23:20:51.831Z,1.20
2018-12-07T23:23:19.280Z,1.30
2018-12-07T23:25:46.732Z,1.67
2018-12-07T23:28:19.444Z,1.23
2018-12-07T23:30:43.638Z,1.43
2018-12-07T23:33:11.084Z,0.80
2018-12-07T23:35:38.551Z,1.27
2018-12-07T23:38:06.132Z,1.40
2018-12-07T23:40:33.599Z,1.37
2018-12-07T23:43:01.836Z,1.43
2018-12-07T23:45:29.324Z,1.53
2018-12-07T23:47:56.787Z,1.60
2018-12-07T23:50:24.253Z,1.83
2018-12-07T23:52:51.708Z,1.43
2018-12-07T23:55:19.162Z,1.70
2018-12-07T23:57:46.611Z,1.90
